sensor_id;sensor_type;location;lat;lon;timestamp;P1;durP1;ratioP1;P2;durP2;ratioP2
64938;SDS011;51453;47.738;7.420;2023-05-10T00:01:46;2.92;;;0.70;;
64938;SDS011;51453;47.738;7.420;2023-05-10T00:04:11;2.08;;;0.93;;
64938;SDS011;51453;47.738;7.420;2023-05-10T00:06:37;3.50;;;1.30;;
64938;SDS011;51453;47.738;7.420;2023-05-10T00:09:03;0.65;;;0.52;;
64938;SDS011;51453;47.738;7.420;2023-05-10T00:11:28;0.80;;;0.70;;
64938;SDS011;51453;47.738;7.420;2023-05-10T00:13:54;3.78;;;0.82;;
64938;SDS011;51453;47.738;7.420;2023-05-10T00:16:20;1.98;;;0.80;;
64938;SDS011;51453;47.738;7.420;2023-05-10T00:18:45;6.25;;;0.90;;
64938;SDS011;51453;47.738;7.420;2023-05-10T00:21:11;1.75;;;0.70;;
64938;SDS011;51453;47.738;7.420;2023-05-10T00:23:37;2.67;;;0.90;;
64938;SDS011;51453;47.738;7.420;2023-05-10T00:26:03;5.35;;;1.10;;
64938;SDS011;51453;47.738;7.420;2023-05-10T00:28:29;2.10;;;0.88;;
64938;SDS011;51453;47.738;7.420;2023-05-10T00:30:54;0.90;;;0.90;;
64938;SDS011;51453;47.738;7.420;2023-05-10T00:33:20;2.05;;;1.00;;
64938;SDS011;51453;47.738;7.420;2023-05-10T00:35:46;2.95;;;0.90;;
64938;SDS011;51453;47.738;7.420;2023-05-10T00:38:11;1.58;;;1.13;;
64938;SDS011;51453;47.738;7.420;2023-05-10T00:40:37;1.23;;;0.90;;
64938;SDS011;51453;47.738;7.420;2023-05-10T00:43:03;1.40;;;1.02;;
64938;SDS011;51453;47.738;7.420;2023-05-10T00:45:30;1.90;;;1.33;;
64938;SDS011;51453;47.738;7.420;2023-05-10T00:48:00;1.65;;;1.15;;
64938;SDS011;51453;47.738;7.420;2023-05-10T00:50:27;1.25;;;1.15;;
64938;SDS011;51453;47.738;7.420;2023-05-10T00:52:53;2.05;;;1.00;;
64938;SDS011;51453;47.738;7.420;2023-05-10T00:55:19;2.15;;;1.17;;
64938;SDS011;51453;47.738;7.420;2023-05-10T00:57:45;1.40;;;1.17;;
64938;SDS011;51453;47.738;7.420;2023-05-10T01:00:12;0.93;;;0.93;;
64938;SDS011;51453;47.738;7.420;2023-05-10T01:02:42;1.10;;;1.00;;
64938;SDS011;51453;47.738;7.420;2023-05-10T01:05:09;3.50;;;1.10;;
64938;SDS011;51453;47.738;7.420;2023-05-10T01:07:34;4.25;;;1.33;;
64938;SDS011;51453;47.738;7.420;2023-05-10T01:10:00;1.25;;;0.90;;
64938;SDS011;51453;47.738;7.420;2023-05-10T01:12:26;1.17;;;1.00;;
64938;SDS011;51453;47.738;7.420;2023-05-10T01:14:52;1.63;;;1.30;;
64938;SDS011;51453;47.738;7.420;2023-05-10T01:17:19;1.65;;;1.00;;
64938;SDS011;51453;47.738;7.420;2023-05-10T01:19:45;2.50;;;1.05;;
64938;SDS011;51453;47.738;7.420;2023-05-10T01:38:49;1.20;;;1.10;;
64938;SDS011;51453;47.738;7.420;2023-05-10T01:47:06;2.05;;;1.10;;
64938;SDS011;51453;47.738;7.420;2023-05-10T01:49:37;5.00;;;1.33;;
64938;SDS011;51453;47.738;7.420;2023-05-10T01:52:16;3.00;;;1.23;;
64938;SDS011;51453;47.738;7.420;2023-05-10T01:54:45;1.40;;;1.30;;
64938;SDS011;51453;47.738;7.420;2023-05-10T01:57:18;2.13;;;1.63;;
64938;SDS011;51453;47.738;7.420;2023-05-10T01:59:47;4.10;;;1.50;;
64938;SDS011;51453;47.738;7.420;2023-05-10T02:02:15;2.58;;;1.73;;
64938;SDS011;51453;47.738;7.420;2023-05-10T02:04:45;2.55;;;1.40;;
64938;SDS011;51453;47.738;7.420;2023-05-10T02:07:12;1.52;;;1.30;;
64938;SDS011;51453;47.738;7.420;2023-05-10T02:09:39;2.55;;;1.38;;
64938;SDS011;51453;47.738;7.420;2023-05-10T02:12:08;1.52;;;1.33;;
64938;SDS011;51453;47.738;7.420;2023-05-10T02:14:35;6.68;;;1.85;;
64938;SDS011;51453;47.738;7.420;2023-05-10T02:17:02;3.50;;;1.67;;
64938;SDS011;51453;47.738;7.420;2023-05-10T02:19:30;3.22;;;1.75;;
64938;SDS011;51453;47.738;7.420;2023-05-10T02:21:59;3.67;;;2.00;;
64938;SDS011;51453;47.738;7.420;2023-05-10T02:24:26;4.13;;;1.75;;
64938;SDS011;51453;47.738;7.420;2023-05-10T02:26:54;2.60;;;1.50;;
64938;SDS011;51453;47.738;7.420;2023-05-10T02:29:23;2.03;;;1.52;;
64938;SDS011;51453;47.738;7.420;2023-05-10T02:31:51;3.15;;;1.60;;
64938;SDS011;51453;47.738;7.420;2023-05-10T02:34:19;1.75;;;1.60;;
64938;SDS011;51453;47.738;7.420;2023-05-10T02:36:47;1.67;;;1.58;;
64938;SDS011;51453;47.738;7.420;2023-05-10T02:39:13;2.33;;;1.33;;
64938;SDS011;51453;47.738;7.420;2023-05-10T02:41:40;1.77;;;1.67;;
64938;SDS011;51453;47.738;7.420;2023-05-10T02:44:08;1.35;;;1.23;;
64938;SDS011;51453;47.738;7.420;2023-05-10T02:46:34;1.40;;;1.30;;
64938;SDS011;51453;47.738;7.420;2023-05-10T02:49:02;2.65;;;1.20;;
64938;SDS011;51453;47.738;7.420;2023-05-10T02:51:28;2.00;;;1.65;;
64938;SDS011;51453;47.738;7.420;2023-05-10T02:53:56;2.50;;;1.30;;
64938;SDS011;51453;47.738;7.420;2023-05-10T02:56:25;1.65;;;1.52;;
64938;SDS011;51453;47.738;7.420;2023-05-10T02:59:00;3.85;;;1.85;;
64938;SDS011;51453;47.738;7.420;2023-05-10T03:01:26;3.50;;;2.10;;
64938;SDS011;51453;47.738;7.420;2023-05-10T03:03:52;2.22;;;2.03;;
64938;SDS011;51453;47.738;7.420;2023-05-10T03:06:17;2.22;;;2.10;;
64938;SDS011;51453;47.738;7.420;2023-05-10T03:08:43;4.10;;;2.10;;
64938;SDS011;51453;47.738;7.420;2023-05-10T03:20:06;4.55;;;2.00;;
64938;SDS011;51453;47.738;7.420;2023-05-10T03:23:19;2.40;;;2.20;;
64938;SDS011;51453;47.738;7.420;2023-05-10T03:25:27;3.30;;;2.38;;
64938;SDS011;51453;47.738;7.420;2023-05-10T03:27:54;2.30;;;2.03;;
64938;SDS011;51453;47.738;7.420;2023-05-10T03:30:22;1.88;;;1.63;;
64938;SDS011;51453;47.738;7.420;2023-05-10T03:32:49;2.92;;;1.77;;
64938;SDS011;51453;47.738;7.420;2023-05-10T03:35:15;3.75;;;1.90;;
64938;SDS011;51453;47.738;7.420;2023-05-10T03:37:40;3.85;;;2.03;;
64938;SDS011;51453;47.738;7.420;2023-05-10T03:40:06;2.35;;;2.05;;
64938;SDS011;51453;47.738;7.420;2023-05-10T03:42:32;3.22;;;2.50;;
64938;SDS011;51453;47.738;7.420;2023-05-10T03:44:58;2.70;;;2.00;;
64938;SDS011;51453;47.738;7.420;2023-05-10T03:47:23;4.43;;;2.38;;
64938;SDS011;51453;47.738;7.420;2023-05-10T03:49:49;2.92;;;2.30;;
64938;SDS011;51453;47.738;7.420;2023-05-10T03:52:15;4.30;;;2.30;;
64938;SDS011;51453;47.738;7.420;2023-05-10T03:54:40;2.53;;;2.05;;
64938;SDS011;51453;47.738;7.420;2023-05-10T03:57:06;4.70;;;2.30;;
64938;SDS011;51453;47.738;7.420;2023-05-10T03:59:32;6.05;;;2.30;;
64938;SDS011;51453;47.738;7.420;2023-05-10T04:01:57;4.47;;;2.53;;
64938;SDS011;51453;47.738;7.420;2023-05-10T04:04:23;2.22;;;2.13;;
64938;SDS011;51453;47.738;7.420;2023-05-10T04:06:49;3.83;;;2.90;;
64938;SDS011;51453;47.738;7.420;2023-05-10T04:09:15;2.60;;;2.40;;
64938;SDS011;51453;47.738;7.420;2023-05-10T04:11:41;3.30;;;2.97;;
64938;SDS011;51453;47.738;7.420;2023-05-10T04:14:07;5.90;;;2.90;;
64938;SDS011;51453;47.738;7.420;2023-05-10T04:16:32;3.88;;;2.50;;
64938;SDS011;51453;47.738;7.420;2023-05-10T04:18:58;2.75;;;2.55;;
64938;SDS011;51453;47.738;7.420;2023-05-10T04:21:24;3.78;;;2.58;;
64938;SDS011;51453;47.738;7.420;2023-05-10T04:23:50;2.25;;;2.05;;
64938;SDS011;51453;47.738;7.420;2023-05-10T04:26:16;4.75;;;2.50;;
64938;SDS011;51453;47.738;7.420;2023-05-10T04:28:41;3.75;;;1.92;;
64938;SDS011;51453;47.738;7.420;2023-05-10T04:31:08;5.53;;;1.80;;
64938;SDS011;51453;47.738;7.420;2023-05-10T04:33:35;2.65;;;2.00;;
64938;SDS011;51453;47.738;7.420;2023-05-10T04:36:01;3.08;;;1.70;;
64938;SDS011;51453;47.738;7.420;2023-05-10T04:38:27;4.05;;;1.83;;
64938;SDS011;51453;47.738;7.420;2023-05-10T04:40:53;2.15;;;1.70;;
64938;SDS011;51453;47.738;7.420;2023-05-10T04:43:19;2.75;;;1.42;;
64938;SDS011;51453;47.738;7.420;2023-05-10T04:45:45;4.55;;;1.00;;
64938;SDS011;51453;47.738;7.420;2023-05-10T04:48:11;1.90;;;1.10;;
64938;SDS011;51453;47.738;7.420;2023-05-10T04:50:37;4.50;;;1.00;;
64938;SDS011;51453;47.738;7.420;2023-05-10T04:53:04;1.90;;;1.10;;
64938;SDS011;51453;47.738;7.420;2023-05-10T04:55:29;1.70;;;1.08;;
64938;SDS011;51453;47.738;7.420;2023-05-10T04:57:55;1.83;;;1.20;;
64938;SDS011;51453;47.738;7.420;2023-05-10T05:00:22;1.25;;;1.20;;
64938;SDS011;51453;47.738;7.420;2023-05-10T05:02:48;1.85;;;1.17;;
64938;SDS011;51453;47.738;7.420;2023-05-10T05:05:14;2.80;;;1.30;;
64938;SDS011;51453;47.738;7.420;2023-05-10T05:07:39;3.67;;;1.40;;
64938;SDS011;51453;47.738;7.420;2023-05-10T05:10:08;1.95;;;1.15;;
64938;SDS011;51453;47.738;7.420;2023-05-10T05:12:34;2.08;;;1.17;;
64938;SDS011;51453;47.738;7.420;2023-05-10T05:15:00;5.47;;;1.50;;
64938;SDS011;51453;47.738;7.420;2023-05-10T05:17:26;1.60;;;1.40;;
64938;SDS011;51453;47.738;7.420;2023-05-10T05:19:52;3.65;;;1.50;;
64938;SDS011;51453;47.738;7.420;2023-05-10T05:22:17;4.43;;;1.75;;
64938;SDS011;51453;47.738;7.420;2023-05-10T05:24:44;4.53;;;1.80;;
64938;SDS011;51453;47.738;7.420;2023-05-10T05:27:10;2.53;;;1.67;;
64938;SDS011;51453;47.738;7.420;2023-05-10T05:29:36;3.90;;;1.70;;
64938;SDS011;51453;47.738;7.420;2023-05-10T05:32:02;5.70;;;1.73;;
64938;SDS011;51453;47.738;7.420;2023-05-10T05:34:28;6.97;;;2.15;;
64938;SDS011;51453;47.738;7.420;2023-05-10T05:36:53;4.80;;;2.03;;
64938;SDS011;51453;47.738;7.420;2023-05-10T05:39:19;4.97;;;2.22;;
64938;SDS011;51453;47.738;7.420;2023-05-10T05:41:45;2.70;;;1.83;;
64938;SDS011;51453;47.738;7.420;2023-05-10T05:44:11;3.47;;;1.90;;
64938;SDS011;51453;47.738;7.420;2023-05-10T05:46:37;6.95;;;1.80;;
64938;SDS011;51453;47.738;7.420;2023-05-10T05:49:03;3.72;;;1.83;;
64938;SDS011;51453;47.738;7.420;2023-05-10T05:51:28;3.65;;;1.75;;
64938;SDS011;51453;47.738;7.420;2023-05-10T05:53:54;5.72;;;1.90;;
64938;SDS011;51453;47.738;7.420;2023-05-10T05:56:20;3.95;;;1.90;;
64938;SDS011;51453;47.738;7.420;2023-05-10T05:58:49;3.65;;;1.75;;
64938;SDS011;51453;47.738;7.420;2023-05-10T06:01:15;3.78;;;1.58;;
64938;SDS011;51453;47.738;7.420;2023-05-10T06:03:41;6.50;;;1.40;;
64938;SDS011;51453;47.738;7.420;2023-05-10T06:06:07;4.15;;;1.75;;
64938;SDS011;51453;47.738;7.420;2023-05-10T06:08:33;3.70;;;2.10;;
64938;SDS011;51453;47.738;7.420;2023-05-10T06:10:59;4.28;;;1.77;;
64938;SDS011;51453;47.738;7.420;2023-05-10T06:13:25;4.55;;;1.70;;
64938;SDS011;51453;47.738;7.420;2023-05-10T06:15:56;4.25;;;1.20;;
64938;SDS011;51453;47.738;7.420;2023-05-10T06:18:23;7.63;;;0.93;;
64938;SDS011;51453;47.738;7.420;2023-05-10T06:20:49;4.93;;;1.35;;
64938;SDS011;51453;47.738;7.420;2023-05-10T06:23:15;1.80;;;0.90;;
64938;SDS011;51453;47.738;7.420;2023-05-10T06:25:40;4.55;;;0.90;;
64938;SDS011;51453;47.738;7.420;2023-05-10T06:28:06;0.93;;;0.63;;
64938;SDS011;51453;47.738;7.420;2023-05-10T06:30:31;1.17;;;0.70;;
64938;SDS011;51453;47.738;7.420;2023-05-10T06:32:57;4.85;;;1.02;;
64938;SDS011;51453;47.738;7.420;2023-05-10T06:35:23;3.13;;;0.70;;
64938;SDS011;51453;47.738;7.420;2023-05-10T06:37:49;5.55;;;0.70;;
64938;SDS011;51453;47.738;7.420;2023-05-10T06:40:15;3.55;;;1.13;;
64938;SDS011;51453;47.738;7.420;2023-05-10T06:42:41;1.25;;;0.70;;
64938;SDS011;51453;47.738;7.420;2023-05-10T06:45:07;5.38;;;1.00;;
64938;SDS011;51453;47.738;7.420;2023-05-10T06:47:34;2.60;;;0.80;;
64938;SDS011;51453;47.738;7.420;2023-05-10T06:49:59;4.97;;;0.70;;
64938;SDS011;51453;47.738;7.420;2023-05-10T06:52:25;3.33;;;1.08;;
64938;SDS011;51453;47.738;7.420;2023-05-10T06:54:51;5.30;;;0.98;;
64938;SDS011;51453;47.738;7.420;2023-05-10T06:57:16;6.07;;;1.40;;
64938;SDS011;51453;47.738;7.420;2023-05-10T06:59:42;3.38;;;0.98;;
64938;SDS011;51453;47.738;7.420;2023-05-10T07:02:08;1.30;;;0.80;;
64938;SDS011;51453;47.738;7.420;2023-05-10T07:04:34;2.72;;;1.00;;
64938;SDS011;51453;47.738;7.420;2023-05-10T07:06:59;1.27;;;0.80;;
64938;SDS011;51453;47.738;7.420;2023-05-10T07:09:25;2.42;;;0.80;;
64938;SDS011;51453;47.738;7.420;2023-05-10T07:11:51;3.40;;;1.02;;
64938;SDS011;51453;47.738;7.420;2023-05-10T07:14:17;3.80;;;0.80;;
64938;SDS011;51453;47.738;7.420;2023-05-10T07:16:42;4.28;;;0.85;;
64938;SDS011;51453;47.738;7.420;2023-05-10T07:19:09;3.38;;;0.77;;
64938;SDS011;51453;47.738;7.420;2023-05-10T07:21:34;2.83;;;0.90;;
64938;SDS011;51453;47.738;7.420;2023-05-10T07:24:01;4.00;;;0.60;;
64938;SDS011;51453;47.738;7.420;2023-05-10T07:26:26;3.40;;;0.80;;
64938;SDS011;51453;47.738;7.420;2023-05-10T07:28:52;4.22;;;1.23;;
64938;SDS011;51453;47.738;7.420;2023-05-10T07:31:18;3.80;;;0.73;;
64938;SDS011;51453;47.738;7.420;2023-05-10T07:33:43;10.45;;;1.00;;
64938;SDS011;51453;47.738;7.420;2023-05-10T07:36:09;1.52;;;0.85;;
64938;SDS011;51453;47.738;7.420;2023-05-10T07:38:34;3.28;;;1.15;;
64938;SDS011;51453;47.738;7.420;2023-05-10T07:41:00;4.03;;;0.80;;
64938;SDS011;51453;47.738;7.420;2023-05-10T07:43:26;5.10;;;0.60;;
64938;SDS011;51453;47.738;7.420;2023-05-10T07:45:51;4.85;;;1.08;;
64938;SDS011;51453;47.738;7.420;2023-05-10T07:48:17;2.80;;;0.60;;
64938;SDS011;51453;47.738;7.420;2023-05-10T07:50:43;3.35;;;0.90;;
64938;SDS011;51453;47.738;7.420;2023-05-10T07:53:09;5.10;;;1.00;;
64938;SDS011;51453;47.738;7.420;2023-05-10T07:55:34;1.70;;;0.68;;
64938;SDS011;51453;47.738;7.420;2023-05-10T07:58:00;2.97;;;0.70;;
64938;SDS011;51453;47.738;7.420;2023-05-10T08:00:26;2.25;;;0.75;;
64938;SDS011;51453;47.738;7.420;2023-05-10T08:02:51;3.47;;;0.65;;
64938;SDS011;51453;47.738;7.420;2023-05-10T08:05:17;5.45;;;0.80;;
64938;SDS011;51453;47.738;7.420;2023-05-10T08:07:43;1.55;;;0.50;;
64938;SDS011;51453;47.738;7.420;2023-05-10T08:10:09;1.38;;;0.40;;
64938;SDS011;51453;47.738;7.420;2023-05-10T08:12:38;3.13;;;0.30;;
64938;SDS011;51453;47.738;7.420;2023-05-10T08:15:04;2.05;;;0.50;;
64938;SDS011;51453;47.738;7.420;2023-05-10T08:17:30;2.42;;;0.57;;
64938;SDS011;51453;47.738;7.420;2023-05-10T08:19:55;1.33;;;0.38;;
64938;SDS011;51453;47.738;7.420;2023-05-10T08:22:21;1.20;;;0.32;;
64938;SDS011;51453;47.738;7.420;2023-05-10T08:24:47;2.15;;;0.35;;
64938;SDS011;51453;47.738;7.420;2023-05-10T08:27:12;0.93;;;0.30;;
64938;SDS011;51453;47.738;7.420;2023-05-10T08:29:38;1.55;;;0.20;;
64938;SDS011;51453;47.738;7.420;2023-05-10T08:32:04;1.25;;;0.20;;
64938;SDS011;51453;47.738;7.420;2023-05-10T08:34:29;1.70;;;0.25;;
64938;SDS011;51453;47.738;7.420;2023-05-10T08:36:56;2.70;;;0.63;;
64938;SDS011;51453;47.738;7.420;2023-05-10T08:39:21;3.03;;;0.30;;
64938;SDS011;51453;47.738;7.420;2023-05-10T08:41:48;2.03;;;0.60;;
64938;SDS011;51453;47.738;7.420;2023-05-10T08:44:17;2.75;;;0.38;;
64938;SDS011;51453;47.738;7.420;2023-05-10T08:46:45;5.47;;;0.50;;
64938;SDS011;51453;47.738;7.420;2023-05-10T08:49:13;0.93;;;0.40;;
64938;SDS011;51453;47.738;7.420;2023-05-10T08:51:43;2.25;;;0.32;;
64938;SDS011;51453;47.738;7.420;2023-05-10T08:54:14;3.15;;;0.50;;
64938;SDS011;51453;47.738;7.420;2023-05-10T08:56:40;2.00;;;0.52;;
64938;SDS011;51453;47.738;7.420;2023-05-10T08:59:06;3.35;;;0.50;;
64938;SDS011;51453;47.738;7.420;2023-05-10T09:01:32;0.95;;;0.40;;
64938;SDS011;51453;47.738;7.420;2023-05-10T09:04:01;1.70;;;0.40;;
64938;SDS011;51453;47.738;7.420;2023-05-10T09:06:27;2.83;;;0.43;;
64938;SDS011;51453;47.738;7.420;2023-05-10T09:08:53;3.13;;;0.50;;
64938;SDS011;51453;47.738;7.420;2023-05-10T09:11:20;4.32;;;0.57;;
64938;SDS011;51453;47.738;7.420;2023-05-10T09:13:46;3.50;;;0.50;;
64938;SDS011;51453;47.738;7.420;2023-05-10T09:16:14;1.10;;;0.35;;
64938;SDS011;51453;47.738;7.420;2023-05-10T09:18:40;4.53;;;0.57;;
64938;SDS011;51453;47.738;7.420;2023-05-10T09:21:06;1.40;;;0.50;;
64938;SDS011;51453;47.738;7.420;2023-05-10T09:23:31;2.13;;;0.40;;
64938;SDS011;51453;47.738;7.420;2023-05-10T09:26:06;1.23;;;0.40;;
64938;SDS011;51453;47.738;7.420;2023-05-10T09:28:33;2.85;;;0.57;;
64938;SDS011;51453;47.738;7.420;2023-05-10T09:31:14;1.13;;;0.47;;
64938;SDS011;51453;47.738;7.420;2023-05-10T09:33:43;1.38;;;0.50;;
64938;SDS011;51453;47.738;7.420;2023-05-10T09:38:49;1.25;;;0.52;;
64938;SDS011;51453;47.738;7.420;2023-05-10T09:41:22;5.38;;;0.50;;
64938;SDS011;51453;47.738;7.420;2023-05-10T09:43:48;1.27;;;0.50;;
64938;SDS011;51453;47.738;7.420;2023-05-10T09:46:15;2.67;;;0.68;;
64938;SDS011;51453;47.738;7.420;2023-05-10T09:48:47;1.20;;;0.40;;
64938;SDS011;51453;47.738;7.420;2023-05-10T09:51:22;2.45;;;0.60;;
64938;SDS011;51453;47.738;7.420;2023-05-10T09:53:57;2.15;;;0.60;;
64938;SDS011;51453;47.738;7.420;2023-05-10T09:56:37;2.90;;;0.50;;
64938;SDS011;51453;47.738;7.420;2023-05-10T09:59:05;6.07;;;0.60;;
64938;SDS011;51453;47.738;7.420;2023-05-10T10:01:33;2.38;;;0.60;;
64938;SDS011;51453;47.738;7.420;2023-05-10T10:03:59;0.82;;;0.50;;
64938;SDS011;51453;47.738;7.420;2023-05-10T10:06:29;3.75;;;0.45;;
64938;SDS011;51453;47.738;7.420;2023-05-10T10:08:55;4.07;;;0.60;;
64938;SDS011;51453;47.738;7.420;2023-05-10T10:11:22;3.83;;;0.77;;
64938;SDS011;51453;47.738;7.420;2023-05-10T10:13:49;2.17;;;0.68;;
64938;SDS011;51453;47.738;7.420;2023-05-10T10:16:14;1.95;;;0.50;;
64938;SDS011;51453;47.738;7.420;2023-05-10T10:18:40;2.15;;;0.43;;
64938;SDS011;51453;47.738;7.420;2023-05-10T10:21:07;6.82;;;0.60;;
64938;SDS011;51453;47.738;7.420;2023-05-10T10:23:36;3.55;;;0.65;;
64938;SDS011;51453;47.738;7.420;2023-05-10T10:26:02;2.63;;;0.60;;
64938;SDS011;51453;47.738;7.420;2023-05-10T10:28:36;4.22;;;0.57;;
64938;SDS011;51453;47.738;7.420;2023-05-10T10:31:36;4.95;;;0.95;;
64938;SDS011;51453;47.738;7.420;2023-05-10T10:34:07;2.37;;;0.60;;
64938;SDS011;51453;47.738;7.420;2023-05-10T10:36:45;4.82;;;0.80;;
64938;SDS011;51453;47.738;7.420;2023-05-10T10:39:12;1.88;;;0.50;;
64938;SDS011;51453;47.738;7.420;2023-05-10T10:54:49;3.13;;;0.38;;
64938;SDS011;51453;47.738;7.420;2023-05-10T10:57:17;1.55;;;0.40;;
64938;SDS011;51453;47.738;7.420;2023-05-10T10:59:44;1.10;;;0.60;;
64938;SDS011;51453;47.738;7.420;2023-05-10T11:02:32;2.80;;;0.50;;
64938;SDS011;51453;47.738;7.420;2023-05-10T11:07:54;1.35;;;0.30;;
64938;SDS011;51453;47.738;7.420;2023-05-10T11:10:21;2.25;;;0.32;;
64938;SDS011;51453;47.738;7.420;2023-05-10T11:13:04;1.55;;;0.40;;
64938;SDS011;51453;47.738;7.420;2023-05-10T11:15:31;2.35;;;0.40;;
64938;SDS011;51453;47.738;7.420;2023-05-10T11:17:59;1.17;;;0.55;;
64938;SDS011;51453;47.738;7.420;2023-05-10T11:20:28;1.63;;;0.60;;
64938;SDS011;51453;47.738;7.420;2023-05-10T11:23:00;1.23;;;0.40;;
64938;SDS011;51453;47.738;7.420;2023-05-10T11:25:44;2.00;;;0.52;;
64938;SDS011;51453;47.738;7.420;2023-05-10T11:28:14;4.72;;;0.55;;
64938;SDS011;51453;47.738;7.420;2023-05-10T11:33:08;2.08;;;0.40;;
64938;SDS011;51453;47.738;7.420;2023-05-10T11:35:39;1.83;;;0.77;;
64938;SDS011;51453;47.738;7.420;2023-05-10T11:38:06;2.58;;;0.55;;
64938;SDS011;51453;47.738;7.420;2023-05-10T11:40:35;3.08;;;0.60;;
64938;SDS011;51453;47.738;7.420;2023-05-10T11:43:01;3.05;;;0.60;;
64938;SDS011;51453;47.738;7.420;2023-05-10T11:45:28;6.55;;;0.65;;
64938;SDS011;51453;47.738;7.420;2023-05-10T11:47:55;2.15;;;0.35;;
64938;SDS011;51453;47.738;7.420;2023-05-10T11:50:22;3.85;;;0.70;;
64938;SDS011;51453;47.738;7.420;2023-05-10T11:52:51;4.28;;;0.40;;
64938;SDS011;51453;47.738;7.420;2023-05-10T11:55:20;1.35;;;0.40;;
64938;SDS011;51453;47.738;7.420;2023-05-10T11:57:46;2.03;;;0.35;;
64938;SDS011;51453;47.738;7.420;2023-05-10T12:00:16;1.42;;;0.40;;
64938;SDS011;51453;47.738;7.420;2023-05-10T12:02:42;0.82;;;0.32;;
64938;SDS011;51453;47.738;7.420;2023-05-10T12:05:08;2.53;;;0.60;;
64938;SDS011;51453;47.738;7.420;2023-05-10T12:07:34;1.33;;;0.20;;
64938;SDS011;51453;47.738;7.420;2023-05-10T12:12:37;0.55;;;0.20;;
64938;SDS011;51453;47.738;7.420;2023-05-10T12:15:19;1.90;;;0.17;;
64938;SDS011;51453;47.738;7.420;2023-05-10T12:17:48;0.10;;;0.10;;
64938;SDS011;51453;47.738;7.420;2023-05-10T12:25:21;0.45;;;0.20;;
64938;SDS011;51453;47.738;7.420;2023-05-10T12:27:51;0.88;;;0.20;;
64938;SDS011;51453;47.738;7.420;2023-05-10T12:30:19;0.40;;;0.10;;
64938;SDS011;51453;47.738;7.420;2023-05-10T12:32:46;0.20;;;0.10;;
64938;SDS011;51453;47.738;7.420;2023-05-10T12:35:12;0.55;;;0.20;;
64938;SDS011;51453;47.738;7.420;2023-05-10T12:37:38;0.70;;;0.20;;
64938;SDS011;51453;47.738;7.420;2023-05-10T12:40:07;1.65;;;0.20;;
64938;SDS011;51453;47.738;7.420;2023-05-10T12:42:35;3.10;;;0.20;;
64938;SDS011;51453;47.738;7.420;2023-05-10T12:45:02;1.00;;;0.20;;
64938;SDS011;51453;47.738;7.420;2023-05-10T12:47:28;3.53;;;0.35;;
64938;SDS011;51453;47.738;7.420;2023-05-10T12:49:54;0.73;;;0.20;;
64938;SDS011;51453;47.738;7.420;2023-05-10T12:52:20;0.70;;;0.13;;
64938;SDS011;51453;47.738;7.420;2023-05-10T12:54:46;1.88;;;0.20;;
64938;SDS011;51453;47.738;7.420;2023-05-10T12:57:12;0.75;;;0.30;;
64938;SDS011;51453;47.738;7.420;2023-05-10T12:59:38;1.65;;;0.30;;
64938;SDS011;51453;47.738;7.420;2023-05-10T13:02:04;0.65;;;0.20;;
64938;SDS011;51453;47.738;7.420;2023-05-10T13:04:30;0.30;;;0.20;;
64938;SDS011;51453;47.738;7.420;2023-05-10T13:06:56;1.27;;;0.10;;
64938;SDS011;51453;47.738;7.420;2023-05-10T13:09:24;0.80;;;0.30;;
64938;SDS011;51453;47.738;7.420;2023-05-10T13:11:50;2.85;;;0.20;;
64938;SDS011;51453;47.738;7.420;2023-05-10T13:14:18;1.33;;;0.47;;
64938;SDS011;51453;47.738;7.420;2023-05-10T13:16:45;0.55;;;0.40;;
64938;SDS011;51453;47.738;7.420;2023-05-10T13:19:11;2.42;;;0.40;;
64938;SDS011;51453;47.738;7.420;2023-05-10T13:21:37;1.45;;;0.22;;
64938;SDS011;51453;47.738;7.420;2023-05-10T13:24:03;2.50;;;0.20;;
64938;SDS011;51453;47.738;7.420;2023-05-10T13:26:29;1.58;;;0.28;;
64938;SDS011;51453;47.738;7.420;2023-05-10T13:28:54;2.80;;;0.20;;
64938;SDS011;51453;47.738;7.420;2023-05-10T13:31:20;2.97;;;0.25;;
64938;SDS011;51453;47.738;7.420;2023-05-10T13:33:46;2.17;;;0.57;;
64938;SDS011;51453;47.738;7.420;2023-05-10T13:36:12;0.75;;;0.30;;
64938;SDS011;51453;47.738;7.420;2023-05-10T13:38:37;2.70;;;0.30;;
64938;SDS011;51453;47.738;7.420;2023-05-10T13:41:03;1.77;;;0.30;;
64938;SDS011;51453;47.738;7.420;2023-05-10T13:43:29;2.75;;;0.30;;
64938;SDS011;51453;47.738;7.420;2023-05-10T13:45:55;1.25;;;0.20;;
64938;SDS011;51453;47.738;7.420;2023-05-10T13:48:20;0.85;;;0.30;;
64938;SDS011;51453;47.738;7.420;2023-05-10T13:50:46;0.50;;;0.25;;
64938;SDS011;51453;47.738;7.420;2023-05-10T13:53:12;1.35;;;0.20;;
64938;SDS011;51453;47.738;7.420;2023-05-10T13:55:38;0.13;;;0.13;;
64938;SDS011;51453;47.738;7.420;2023-05-10T13:58:03;2.53;;;0.30;;
64938;SDS011;51453;47.738;7.420;2023-05-10T14:00:29;0.93;;;0.30;;
64938;SDS011;51453;47.738;7.420;2023-05-10T14:02:55;2.70;;;0.40;;
64938;SDS011;51453;47.738;7.420;2023-05-10T14:05:21;0.93;;;0.30;;
64938;SDS011;51453;47.738;7.420;2023-05-10T14:07:47;3.40;;;0.50;;
64938;SDS011;51453;47.738;7.420;2023-05-10T14:10:13;0.45;;;0.20;;
64938;SDS011;51453;47.738;7.420;2023-05-10T14:12:39;0.47;;;0.40;;
64938;SDS011;51453;47.738;7.420;2023-05-10T14:15:05;0.75;;;0.20;;
64938;SDS011;51453;47.738;7.420;2023-05-10T14:17:31;1.95;;;0.50;;
64938;SDS011;51453;47.738;7.420;2023-05-10T14:19:57;1.17;;;0.25;;
64938;SDS011;51453;47.738;7.420;2023-05-10T14:22:22;0.80;;;0.35;;
64938;SDS011;51453;47.738;7.420;2023-05-10T14:24:48;3.63;;;0.50;;
64938;SDS011;51453;47.738;7.420;2023-05-10T14:27:15;1.55;;;0.40;;
64938;SDS011;51453;47.738;7.420;2023-05-10T14:29:41;1.80;;;0.25;;
64938;SDS011;51453;47.738;7.420;2023-05-10T14:32:07;0.85;;;0.40;;
64938;SDS011;51453;47.738;7.420;2023-05-10T14:34:32;0.80;;;0.28;;
64938;SDS011;51453;47.738;7.420;2023-05-10T14:36:58;1.23;;;0.30;;
64938;SDS011;51453;47.738;7.420;2023-05-10T14:39:24;1.00;;;0.30;;
64938;SDS011;51453;47.738;7.420;2023-05-10T14:41:50;1.38;;;0.15;;
64938;SDS011;51453;47.738;7.420;2023-05-10T14:44:17;2.22;;;0.50;;
64938;SDS011;51453;47.738;7.420;2023-05-10T14:46:42;1.58;;;0.30;;
64938;SDS011;51453;47.738;7.420;2023-05-10T14:49:08;0.20;;;0.20;;
64938;SDS011;51453;47.738;7.420;2023-05-10T14:51:34;0.50;;;0.30;;
64938;SDS011;51453;47.738;7.420;2023-05-10T14:54:01;0.30;;;0.20;;
64938;SDS011;51453;47.738;7.420;2023-05-10T14:56:27;0.60;;;0.40;;
64938;SDS011;51453;47.738;7.420;2023-05-10T14:58:53;0.63;;;0.30;;
64938;SDS011;51453;47.738;7.420;2023-05-10T15:01:18;0.20;;;0.20;;
64938;SDS011;51453;47.738;7.420;2023-05-10T15:03:44;1.42;;;0.40;;
64938;SDS011;51453;47.738;7.420;2023-05-10T15:06:10;2.08;;;0.50;;
64938;SDS011;51453;47.738;7.420;2023-05-10T15:08:36;0.43;;;0.22;;
64938;SDS011;51453;47.738;7.420;2023-05-10T15:11:01;0.60;;;0.40;;
64938;SDS011;51453;47.738;7.420;2023-05-10T15:13:28;1.65;;;0.50;;
64938;SDS011;51453;47.738;7.420;2023-05-10T15:15:53;1.88;;;0.50;;
64938;SDS011;51453;47.738;7.420;2023-05-10T15:18:19;2.17;;;0.40;;
64938;SDS011;51453;47.738;7.420;2023-05-10T15:20:45;0.73;;;0.30;;
64938;SDS011;51453;47.738;7.420;2023-05-10T15:23:10;2.50;;;0.30;;
64938;SDS011;51453;47.738;7.420;2023-05-10T15:25:36;1.02;;;0.38;;
64938;SDS011;51453;47.738;7.420;2023-05-10T15:28:02;1.42;;;0.40;;
64938;SDS011;51453;47.738;7.420;2023-05-10T15:30:29;3.10;;;0.40;;
64938;SDS011;51453;47.738;7.420;2023-05-10T15:32:55;0.85;;;0.40;;
64938;SDS011;51453;47.738;7.420;2023-05-10T15:35:20;3.65;;;0.50;;
64938;SDS011;51453;47.738;7.420;2023-05-10T15:37:47;3.60;;;0.38;;
64938;SDS011;51453;47.738;7.420;2023-05-10T15:40:13;0.82;;;0.22;;
64938;SDS011;51453;47.738;7.420;2023-05-10T15:42:39;1.13;;;0.40;;
64938;SDS011;51453;47.738;7.420;2023-05-10T15:45:05;1.45;;;0.30;;
64938;SDS011;51453;47.738;7.420;2023-05-10T15:47:31;2.00;;;0.30;;